Time;durP1;ratioP1;P1;durP2;ratioP2;P2;SDS_P1;SDS_P2;PMS_P1;PMS_P2;Temp;Humidity;BMP_temperature;BMP_pressure;BME280_temperature;BME280_humidity;BME280_pressure;Samples;Min_cycle;Max_cycle;Signal;HPM_P1;HPM_P2
2024/01/04 00:01:20;;;;;;;1.87;0.57;;;;;;;-141.84;71.70;18836.41;5051411;28;20221;-60
2024/01/04 00:03:49;;;;;;;1.50;0.83;;;;;;;-141.84;72.54;18846.56;5046148;28;20221;-59
2024/01/04 00:06:19;;;;;;;0.40;0.40;;;;;;;-141.84;71.25;18816.06;5046999;28;20205;-59
2024/01/04 00:08:48;;;;;;;1.37;0.70;;;;;;;-141.84;72.07;18832.34;5048125;28;20673;-55
2024/01/04 00:11:17;;;;;;;0.87;0.50;;;;;;;-141.84;72.66;18856.72;5044528;28;20321;-56
2024/01/04 00:13:46;;;;;;;1.63;0.50;;;;;;;-141.84;72.15;18850.63;5047245;28;20225;-54
2024/01/04 00:16:14;;;;;;;1.00;0.57;;;;;;;-141.84;72.62;18877.03;5047444;28;20249;-56
2024/01/04 00:18:44;;;;;;;1.80;0.63;;;;;;;-141.84;71.97;18844.53;5046888;28;20233;-53
2024/01/04 00:21:14;;;;;;;1.87;0.40;;;;;;;-141.84;72.36;18844.53;5045910;28;20198;-56
2024/01/04 00:23:42;;;;;;;2.50;0.60;;;;;;;-141.84;71.27;18832.34;5047340;28;20217;-60
2024/01/04 00:26:11;;;;;;;0.53;0.53;;;;;;;-141.84;71.58;18812.00;5052917;28;20217;-59
2024/01/04 00:28:40;;;;;;;0.93;0.50;;;;;;;-141.84;73.40;18877.03;5052773;28;20244;-59
2024/01/04 00:31:08;;;;;;;0.70;0.50;;;;;;;-141.84;73.78;18887.19;5059361;28;20245;-59
2024/01/04 00:33:40;;;;;;;0.80;0.40;;;;;;;-141.84;74.58;18978.63;5052733;28;20755;-59
2024/01/04 00:36:11;;;;;;;1.50;0.40;;;;;;;-141.84;74.15;18938.00;5053182;28;20629;-60
2024/01/04 00:38:39;;;;;;;0.50;0.40;;;;;;;-141.84;73.72;18917.66;5053804;28;20220;-60
2024/01/04 00:41:10;;;;;;;1.23;0.50;;;;;;;-141.84;72.99;18885.16;5052835;28;20245;-60
2024/01/04 00:43:39;;;;;;;1.33;0.40;;;;;;;-141.84;73.76;18893.28;5052940;28;20292;-59
2024/01/04 00:46:08;;;;;;;1.23;0.43;;;;;;;-141.84;73.62;18915.63;5051735;28;20590;-60
2024/01/04 00:48:36;;;;;;;0.83;0.50;;;;;;;-141.84;73.86;18921.75;5052295;28;20316;-60
2024/01/04 00:51:05;;;;;;;1.07;0.60;;;;;;;-141.84;74.45;18948.16;5049961;28;20555;-59
2024/01/04 00:53:35;;;;;;;0.97;0.47;;;;;;;-141.84;74.10;18935.97;5053447;28;20228;-60
2024/01/04 00:56:04;;;;;;;1.90;0.73;;;;;;;-141.84;74.82;18990.81;5049394;28;20237;-60
2024/01/04 00:58:33;;;;;;;2.50;0.50;;;;;;;-141.84;74.52;19007.06;5052694;28;20308;-59
2024/01/04 01:01:04;;;;;;;0.80;0.67;;;;;;;-141.84;74.07;18952.22;5054089;28;20308;-59
2024/01/04 01:03:33;;;;;;;0.60;0.47;;;;;;;-141.84;76.26;19096.47;5052430;28;20228;-59
2024/01/04 01:06:02;;;;;;;1.23;0.60;;;;;;;-141.84;75.05;19007.06;5052629;28;20193;-59
2024/01/04 01:08:31;;;;;;;0.80;0.50;;;;;;;-141.84;74.68;18990.81;5052762;28;20875;-60
2024/01/04 01:11:01;;;;;;;1.07;0.60;;;;;;;-141.84;75.49;19041.63;5052231;28;20217;-59
2024/01/04 01:13:30;;;;;;;0.77;0.43;;;;;;;-141.84;75.97;19090.38;5052441;28;20221;-59
2024/01/04 01:15:58;;;;;;;0.70;0.60;;;;;;;-141.84;74.33;18944.09;5052381;28;20229;-60
2024/01/04 01:18:27;;;;;;;1.07;0.60;;;;;;;-141.84;73.74;18952.22;5052214;28;20274;-60
2024/01/04 01:20:56;;;;;;;1.17;0.50;;;;;;;-141.84;72.73;18872.97;5052819;28;20201;-59
2024/01/04 01:23:25;;;;;;;0.47;0.40;;;;;;;-141.84;72.32;18862.81;5051897;28;20688;-59
2024/01/04 01:25:53;;;;;;;0.90;0.47;;;;;;;-141.84;72.83;18887.19;5051886;28;20665;-59
2024/01/04 01:28:23;;;;;;;1.37;0.60;;;;;;;-141.84;72.53;18872.97;5050905;28;20235;-59
2024/01/04 01:30:51;;;;;;;1.00;0.50;;;;;;;-141.84;72.71;18881.09;5059437;28;20755;-60
2024/01/04 01:33:20;;;;;;;1.17;0.50;;;;;;;-141.84;72.67;18866.88;5052746;28;20779;-60
2024/01/04 01:35:49;;;;;;;0.50;0.50;;;;;;;-141.84;72.49;18877.03;5052180;28;20227;-60
2024/01/04 01:38:17;;;;;;;1.23;0.50;;;;;;;-141.84;72.15;18830.31;5051921;28;20275;-59
2024/01/04 01:40:46;;;;;;;0.50;0.50;;;;;;;-141.84;71.64;18801.84;5051983;28;20252;-60
2024/01/04 01:43:15;;;;;;;0.67;0.63;;;;;;;-141.84;72.45;18852.66;5052168;28;20221;-60
2024/01/04 01:45:45;;;;;;;1.20;0.50;;;;;;;-141.84;72.26;18830.31;5058392;28;20221;-59
2024/01/04 01:48:14;;;;;;;1.33;0.77;;;;;;;-141.84;73.38;18872.97;5051390;28;20225;-61
2024/01/04 01:50:45;;;;;;;0.90;0.73;;;;;;;-141.84;74.33;18940.03;5051748;28;20485;-60
2024/01/04 01:53:14;;;;;;;2.10;0.60;;;;;;;-141.84;74.71;18942.06;5051524;28;20554;-59
2024/01/04 01:55:43;;;;;;;1.83;0.53;;;;;;;-141.84;75.95;19045.69;5046970;28;20282;-61
2024/01/04 01:58:12;;;;;;;1.63;0.60;;;;;;;-141.84;74.15;18938.00;5055703;28;20275;-60
2024/01/04 02:00:41;;;;;;;2.10;0.77;;;;;;;-141.84;72.17;18818.09;5055408;28;20221;-60
2024/01/04 02:03:13;;;;;;;0.80;0.50;;;;;;;-141.84;69.99;18761.22;5062928;28;20304;-60
2024/01/04 02:05:42;;;;;;;2.03;0.80;;;;;;;-141.84;69.45;18799.81;5054966;28;20207;-60
2024/01/04 02:08:11;;;;;;;1.67;0.50;;;;;;;-141.84;69.31;18765.28;5051351;28;20233;-60
2024/01/04 02:10:39;;;;;;;1.30;0.50;;;;;;;-141.84;69.50;18775.44;5051199;28;20229;-60
2024/01/04 02:13:09;;;;;;;2.20;0.63;;;;;;;-141.84;69.83;18757.16;5051378;28;20271;-58
2024/01/04 02:15:37;;;;;;;1.33;0.60;;;;;;;-141.84;69.37;18751.06;5051326;28;20221;-59
2024/01/04 02:18:06;;;;;;;2.17;0.50;;;;;;;-141.84;68.70;18722.63;5043106;28;20297;-59
2024/01/04 02:20:37;;;;;;;0.40;0.40;;;;;;;-141.84;69.37;18738.88;5051539;28;20681;-59
2024/01/04 02:23:07;;;;;;;1.67;0.50;;;;;;;-141.84;68.64;18728.72;5050854;28;20310;-59
2024/01/04 02:25:35;;;;;;;1.27;0.50;;;;;;;-141.84;68.62;18753.09;5051145;28;20622;-52
2024/01/04 02:28:04;;;;;;;0.80;0.43;;;;;;;-141.84;68.67;18726.69;5046537;28;20309;-55
2024/01/04 02:30:33;;;;;;;1.27;0.37;;;;;;;-141.84;67.96;18714.50;5050086;28;20248;-52
2024/01/04 02:33:01;;;;;;;0.67;0.40;;;;;;;-141.84;67.54;18726.69;5055286;28;20205;-56
2024/01/04 02:35:31;;;;;;;0.40;0.40;;;;;;;-141.84;68.32;18714.50;5054174;28;20225;-55
2024/01/04 02:37:59;;;;;;;0.53;0.40;;;;;;;-141.84;68.80;18763.25;5053498;28;20255;-51
2024/01/04 02:40:31;;;;;;;1.17;0.43;;;;;;;-141.84;70.15;18765.28;5050661;28;20340;-55
2024/01/04 02:43:00;;;;;;;1.73;0.70;;;;;;;-141.84;71.55;18820.16;5053326;28;20256;-55
2024/01/04 02:45:28;;;;;;;1.13;0.50;;;;;;;-141.84;70.15;18779.50;5063172;28;20288;-57
2024/01/04 02:47:57;;;;;;;1.20;0.60;;;;;;;-141.84;68.11;18732.78;5059462;28;20216;-54
2024/01/04 02:50:25;;;;;;;1.13;0.40;;;;;;;-141.84;68.83;18740.91;5058482;28;20277;-54
2024/01/04 02:52:54;;;;;;;1.10;0.60;;;;;;;-141.84;69.54;18763.25;5053690;28;20243;-53
2024/01/04 02:55:23;;;;;;;0.83;0.40;;;;;;;-141.84;69.58;18744.97;5057810;28;20712;-56
2024/01/04 02:57:52;;;;;;;2.73;0.50;;;;;;;-141.84;68.31;18755.13;5054988;28;20255;-54
2024/01/04 03:00:22;;;;;;;2.03;0.53;;;;;;;-141.84;68.56;18749.03;5053905;28;20261;-58
2024/01/04 03:02:50;;;;;;;0.67;0.50;;;;;;;-141.84;69.06;18781.53;5053767;28;20224;-59
2024/01/04 03:05:19;;;;;;;1.57;0.43;;;;;;;-141.84;69.57;18755.13;5058059;28;20228;-59
2024/01/04 03:07:47;;;;;;;1.63;0.40;;;;;;;-141.84;69.01;18740.91;5051139;28;20217;-59
2024/01/04 03:10:16;;;;;;;1.60;0.50;;;;;;;-141.84;68.06;18759.19;5050295;28;20244;-59
2024/01/04 03:12:44;;;;;;;0.60;0.50;;;;;;;-141.84;68.59;18757.16;5050066;28;20308;-59
2024/01/04 03:15:14;;;;;;;1.57;0.37;;;;;;;-141.84;70.03;18775.44;5050083;28;20251;-59
2024/01/04 03:17:43;;;;;;;1.03;0.40;;;;;;;-141.84;73.14;18846.56;5052848;28;20209;-59
2024/01/04 03:20:12;;;;;;;1.47;0.50;;;;;;;-141.84;77.03;19218.41;5052095;28;20245;-59
2024/01/04 03:22:40;;;;;;;1.70;0.53;;;;;;;-141.84;80.16;20100.41;5054446;28;20229;-58
2024/01/04 03:25:10;;;;;;;0.70;0.50;;;;;;;-141.84;83.75;24859.38;5053964;28;20252;-59
2024/01/04 03:27:39;;;;;;;1.33;0.57;;;;;;;-141.84;86.92;40368.22;5054110;28;20217;-58
2024/01/04 03:30:08;;;;;;;1.40;0.70;;;;;;;-141.84;90.39;60180.38;5054277;28;20284;-58
2024/01/04 03:32:42;;;;;;;2.00;0.50;;;;;;;-141.84;92.68;70970.84;5054704;28;20202;-60
2024/01/04 03:35:16;;;;;;;1.33;0.60;;;;;;;-141.84;95.58;81526.28;5059931;28;20227;-61
2024/01/04 03:37:45;;;;;;;0.50;0.50;;;;;;;-141.84;96.80;86814.44;5048920;28;20244;-59
2024/01/04 03:40:14;;;;;;;1.07;0.73;;;;;;;-141.84;98.64;91844.63;5059743;28;20300;-59
2024/01/04 03:42:43;;;;;;;2.20;0.67;;;;;;;-141.84;96.76;87872.91;5056502;28;20252;-59
2024/01/04 03:45:11;;;;;;;0.67;0.53;;;;;;;-141.84;96.49;86549.84;5053706;28;20221;-60
2024/01/04 03:47:41;;;;;;;0.63;0.60;;;;;;;-141.84;98.29;91579.72;5054406;28;20225;-60
2024/01/04 03:50:11;;;;;;;0.80;0.80;;;;;;;-141.84;98.43;92639.44;5053032;28;20271;-60
2024/01/04 03:52:39;;;;;;;1.27;0.60;;;;;;;-141.84;98.93;94229.53;5057921;28;20274;-59
2024/01/04 03:55:08;;;;;;;0.83;0.70;;;;;;;-141.84;97.09;89461.13;5052656;28;20283;-60
2024/01/04 03:57:37;;;;;;;0.90;0.40;;;;;;;-141.84;95.78;85756.25;5062867;28;20304;-60
2024/01/04 04:00:07;;;;;;;0.50;0.50;;;;;;;-141.84;93.66;79412.97;5053647;28;20280;-59
2024/01/04 04:02:35;;;;;;;0.57;0.50;;;;;;;-141.84;90.86;68863.09;5059596;28;20198;-59
2024/01/04 04:05:06;;;;;;;1.03;0.70;;;;;;;-141.84;92.36;73079.69;5053233;28;20304;-62
2024/01/04 04:07:35;;;;;;;0.90;0.60;;;;;;;-141.84;92.26;74662.09;5059869;28;20224;-59
2024/01/04 04:10:04;;;;;;;0.67;0.50;;;;;;;-141.84;88.29;58078.34;5053278;28;20958;-58
2024/01/04 04:12:36;;;;;;;1.20;0.70;;;;;;;-141.84;88.78;57815.66;5053483;28;20221;-58
2024/01/04 04:15:05;;;;;;;0.80;0.40;;;;;;;-141.84;88.74;56502.53;5058441;28;20217;-59
2024/01/04 04:17:36;;;;;;;2.10;0.50;;;;;;;-141.84;86.94;49681.28;5054007;28;20202;-59
2024/01/04 04:20:07;;;;;;;0.67;0.50;;;;;;;-141.84;86.24;42610.09;5053258;28;20225;-59
2024/01/04 04:22:35;;;;;;;0.60;0.60;;;;;;;-141.84;85.36;38681.00;5060154;28;20279;-59
2024/01/04 04:25:04;;;;;;;0.93;0.40;;;;;;;-141.84;84.45;32247.28;5054814;28;20701;-60
2024/01/04 04:27:32;;;;;;;1.27;0.60;;;;;;;-141.84;85.10;35404.66;5053281;28;20225;-61
2024/01/04 04:30:01;;;;;;;0.50;0.30;;;;;;;-141.84;84.10;29748.44;5053250;28;20243;-58
2024/01/04 04:32:30;;;;;;;0.30;0.30;;;;;;;-141.84;83.07;26050.03;5050709;28;20206;-60
2024/01/04 04:34:58;;;;;;;0.50;0.50;;;;;;;-141.84;82.91;25919.75;5055526;28;20232;-59
2024/01/04 04:37:28;;;;;;;0.80;0.50;;;;;;;-141.84;85.31;35751.56;5055067;28;20225;-59
2024/01/04 04:39:57;;;;;;;0.87;0.53;;;;;;;-141.84;87.19;47584.78;5055544;28;20741;-55
2024/01/04 04:42:27;;;;;;;0.70;0.50;;;;;;;-141.84;89.79;61494.72;5052914;28;20248;-54
2024/01/04 04:44:55;;;;;;;0.87;0.60;;;;;;;-141.84;91.88;70443.78;5058675;28;20308;-53
2024/01/04 04:47:24;;;;;;;1.37;0.80;;;;;;;-141.84;93.97;78884.81;5056049;28;20228;-56
2024/01/04 04:49:52;;;;;;;0.40;0.40;;;;;;;-141.84;96.20;85227.25;5052754;28;20296;-54
2024/01/04 04:52:21;;;;;;;0.80;0.60;;;;;;;-141.84;99.09;93699.44;5051429;28;20222;-55
2024/01/04 04:54:51;;;;;;;0.77;0.43;;;;;;;-141.84;99.95;96085.44;5039253;28;20713;-56
2024/01/04 04:57:19;;;;;;;1.20;0.50;;;;;;;-141.84;100.00;98207.50;5058050;28;20225;-53
2024/01/04 04:59:48;;;;;;;0.50;0.43;;;;;;;-141.84;100.00;99003.56;5060745;28;20197;-54
2024/01/04 05:02:17;;;;;;;1.43;0.40;;;;;;;-141.84;100.00;101127.16;5052339;28;20221;-50
2024/01/04 05:04:46;;;;;;;0.90;0.60;;;;;;;-141.84;100.00;102720.59;5060324;28;20304;-51
2024/01/04 05:07:14;;;;;;;1.13;0.60;;;;;;;-141.84;100.00;104048.94;5057562;28;20308;-55
2024/01/04 05:09:43;;;;;;;0.67;0.47;;;;;;;-141.84;100.00;102455.00;5062075;28;20239;-56
2024/01/04 05:12:12;;;;;;;0.60;0.60;;;;;;;-141.84;100.00;104048.94;5061747;28;20221;-51
2024/01/04 05:14:41;;;;;;;1.23;0.47;;;;;;;-141.84;100.00;101923.81;5058123;28;20661;-55
2024/01/04 05:17:10;;;;;;;0.90;0.50;;;;;;;-141.84;100.00;104846.16;5051628;28;20233;-54
2024/01/04 05:19:38;;;;;;;1.47;0.63;;;;;;;-141.84;100.00;107770.63;5054290;28;20226;-56
2024/01/04 05:22:07;;;;;;;0.50;0.50;;;;;;;-141.84;100.00;108568.56;5051732;28;20728;-52
2024/01/04 05:24:38;;;;;;;1.33;0.50;;;;;;;-141.84;100.00;110164.91;5052102;28;20231;-55
2024/01/04 05:27:06;;;;;;;2.10;0.90;;;;;;;-141.84;100.00;111495.69;5053839;28;20292;-54
2024/01/04 05:29:36;;;;;;;1.10;0.80;;;;;;;-141.84;100.00;112826.88;5052517;28;20247;-55
2024/01/04 05:32:05;;;;;;;4.20;0.80;;;;;;;-141.84;100.00;112560.63;5047642;28;20568;-57
2024/01/04 05:34:36;;;;;;;0.83;0.60;;;;;;;-141.84;100.00;110697.16;5051486;28;20267;-55
2024/01/04 05:37:05;;;;;;;0.63;0.60;;;;;;;-141.84;100.00;109366.66;5051511;28;20688;-57
2024/01/04 05:39:33;;;;;;;0.87;0.60;;;;;;;-141.84;100.00;104580.41;5051641;28;20304;-55
2024/01/04 05:42:02;;;;;;;0.50;0.50;;;;;;;-141.84;100.00;104846.16;5050616;28;20202;-51
2024/01/04 05:44:31;;;;;;;1.27;0.50;;;;;;;-141.84;99.39;98207.50;5052416;28;20217;-53
2024/01/04 05:47:00;;;;;;;1.70;0.50;;;;;;;-141.84;99.05;96350.63;5051299;28;20871;-54
2024/01/04 05:49:29;;;;;;;0.77;0.60;;;;;;;-141.84;95.97;89461.13;5043461;28;20343;-57
2024/01/04 05:51:58;;;;;;;0.60;0.60;;;;;;;-141.84;94.52;84698.34;5050980;28;20221;-55
2024/01/04 05:54:26;;;;;;;0.50;0.50;;;;;;;-141.84;95.32;85491.75;5051326;28;20225;-56
2024/01/04 05:56:55;;;;;;;0.87;0.67;;;;;;;-141.84;96.95;90785.09;5051944;28;20186;-55
2024/01/04 05:59:24;;;;;;;0.90;0.53;;;;;;;-141.84;96.78;89725.88;5051534;28;20233;-54
2024/01/04 06:01:53;;;;;;;0.60;0.50;;;;;;;-141.84;97.20;91579.72;5050966;28;20228;-56
2024/01/04 06:04:23;;;;;;;0.60;0.60;;;;;;;-141.84;93.69;80733.66;5051382;28;20217;-54
2024/01/04 06:06:53;;;;;;;1.00;0.90;;;;;;;-141.84;93.88;80997.84;5051268;28;20313;-55
2024/01/04 06:09:21;;;;;;;1.00;0.80;;;;;;;-141.84;92.98;79412.97;5051144;28;20643;-55
2024/01/04 06:11:51;;;;;;;0.40;0.40;;;;;;;-141.84;92.83;76772.88;5051768;28;20280;-55
2024/01/04 06:14:20;;;;;;;0.90;0.83;;;;;;;-141.84;93.77;80205.34;5051164;28;20221;-56
2024/01/04 06:16:49;;;;;;;0.90;0.40;;;;;;;-141.84;94.32;83376.34;5051005;28;20229;-55
2024/01/04 06:19:17;;;;;;;1.13;0.50;;;;;;;-141.84;92.05;75189.69;5051009;28;20308;-56
2024/01/04 06:21:47;;;;;;;0.70;0.37;;;;;;;-141.84;93.95;80733.66;5051020;28;20248;-55
2024/01/04 06:24:16;;;;;;;0.53;0.50;;;;;;;-141.84;93.56;80997.84;5051303;28;20245;-56
2024/01/04 06:26:45;;;;;;;0.70;0.57;;;;;;;-141.84;90.88;70443.78;5051371;28;20253;-56
2024/01/04 06:29:13;;;;;;;0.60;0.50;;;;;;;-141.84;91.39;72025.13;5050683;28;20786;-54
2024/01/04 06:31:42;;;;;;;0.50;0.40;;;;;;;-141.84;90.36;68072.97;5050571;28;20819;-55
2024/01/04 06:34:10;;;;;;;1.33;0.50;;;;;;;-141.84;89.06;63072.50;5048390;28;20887;-55
2024/01/04 06:36:39;;;;;;;0.60;0.60;;;;;;;-141.84;88.04;56502.53;5050740;28;20315;-55
2024/01/04 06:39:09;;;;;;;0.60;0.60;;;;;;;-141.84;88.33;58866.47;5050997;28;20276;-55
2024/01/04 06:41:39;;;;;;;0.50;0.50;;;;;;;-141.84;87.59;53877.56;5050986;28;20205;-54
2024/01/04 06:44:07;;;;;;;1.30;0.53;;;;;;;-141.84;89.48;62546.50;5050413;28;20217;-55
2024/01/04 06:46:36;;;;;;;0.70;0.70;;;;;;;-141.84;88.68;60180.38;5050362;28;20685;-59
2024/01/04 06:49:05;;;;;;;0.73;0.50;;;;;;;-141.84;87.92;55977.41;5040193;28;20304;-53
2024/01/04 06:51:34;;;;;;;1.07;0.70;;;;;;;-141.84;89.02;61494.72;5048544;28;20221;-55
2024/01/04 06:54:03;;;;;;;0.60;0.60;;;;;;;-141.84;87.49;53090.44;5049773;28;20193;-56
2024/01/04 06:56:33;;;;;;;0.97;0.70;;;;;;;-141.84;85.77;42565.13;5050810;28;20198;-54
2024/01/04 06:59:03;;;;;;;0.80;0.80;;;;;;;-141.84;87.19;50729.94;5050235;28;20224;-57
2024/01/04 07:01:32;;;;;;;0.60;0.60;;;;;;;-141.84;85.40;39980.06;5044815;28;20759;-55
2024/01/04 07:04:01;;;;;;;0.73;0.57;;;;;;;-141.84;84.87;35390.38;5044078;28;20347;-54
2024/01/04 07:06:29;;;;;;;0.70;0.67;;;;;;;-141.84;84.09;33071.06;5042247;28;20228;-54
2024/01/04 07:08:58;;;;;;;0.60;0.60;;;;;;;-141.84;83.48;28151.34;5043560;28;20194;-54
2024/01/04 07:11:29;;;;;;;0.97;0.73;;;;;;;-141.84;86.28;43656.88;5046209;28;20214;-55
2024/01/04 07:13:59;;;;;;;0.60;0.60;;;;;;;-141.84;90.91;67809.63;5042468;28;20229;-54
2024/01/04 07:16:28;;;;;;;0.70;0.50;;;;;;;-141.84;95.44;83640.72;5046748;28;20241;-54
2024/01/04 07:18:56;;;;;;;0.50;0.50;;;;;;;-141.84;98.56;93964.47;5050283;28;20304;-55
2024/01/04 07:21:25;;;;;;;0.93;0.83;;;;;;;-141.84;98.67;95024.81;5050744;28;20225;-55
2024/01/04 07:23:54;;;;;;;0.70;0.70;;;;;;;-141.84;100.00;98738.19;5051015;28;20216;-56
2024/01/04 07:26:22;;;;;;;0.60;0.57;;;;;;;-141.84;100.00;101392.69;5050366;28;20248;-56
2024/01/04 07:28:51;;;;;;;0.53;0.53;;;;;;;-141.84;100.00;102986.25;5050615;28;20229;-53
2024/01/04 07:31:21;;;;;;;1.07;0.80;;;;;;;-141.84;100.00;101923.81;5049867;28;20754;-56
2024/01/04 07:33:49;;;;;;;1.23;0.70;;;;;;;-141.84;100.00;105643.53;5042214;28;20295;-54
2024/01/04 07:36:18;;;;;;;1.00;0.80;;;;;;;-141.84;100.00;102455.00;5045556;28;20255;-54
2024/01/04 07:38:47;;;;;;;0.80;0.80;;;;;;;-141.84;100.00;101127.16;5050721;28;20202;-55
2024/01/04 07:41:16;;;;;;;2.30;1.10;;;;;;;-141.84;100.00;102720.59;5050223;28;20221;-54
2024/01/04 07:43:45;;;;;;;1.40;1.10;;;;;;;-141.84;100.00;103783.25;5050174;28;20283;-56
2024/01/04 07:46:13;;;;;;;1.90;1.50;;;;;;;-141.84;100.00;99268.97;5042194;28;20312;-58
2024/01/04 07:48:44;;;;;;;1.47;1.17;;;;;;;-141.84;96.87;90785.09;5043358;28;20285;-56
2024/01/04 07:51:12;;;;;;;1.40;1.00;;;;;;;-141.84;95.53;87608.25;5049739;28;20197;-58
2024/01/04 07:53:41;;;;;;;1.13;1.03;;;;;;;-141.84;93.24;79677.06;5050803;28;20200;-56
2024/01/04 07:56:10;;;;;;;1.47;0.90;;;;;;;-141.84;90.70;69653.38;5050194;28;20217;-56
2024/01/04 07:58:38;;;;;;;0.90;0.80;;;;;;;-141.84;92.90;77828.72;5049871;28;20576;-56
2024/01/04 08:01:07;;;;;;;0.77;0.73;;;;;;;-141.84;89.01;64124.72;5049220;28;20221;-56
2024/01/04 08:03:36;;;;;;;0.83;0.70;;;;;;;-141.84;87.33;55189.84;5044712;28;20730;-54
2024/01/04 08:06:07;;;;;;;1.90;0.80;;;;;;;-141.84;86.87;49681.28;5051627;28;20301;-54
2024/01/04 08:08:35;;;;;;;0.90;0.83;;;;;;;-141.84;86.62;49419.16;5048692;28;20707;-55
2024/01/04 08:11:04;;;;;;;0.80;0.80;;;;;;;-141.84;87.39;53090.44;5045169;28;20308;-54
2024/01/04 08:13:33;;;;;;;2.30;0.80;;;;;;;-141.84;89.71;63335.53;5044988;28;20236;-57
2024/01/04 08:16:02;;;;;;;0.90;0.90;;;;;;;-141.84;87.28;52303.44;5053403;28;20324;-56
2024/01/04 08:18:32;;;;;;;1.37;1.00;;;;;;;-141.84;85.03;38666.72;5053144;28;20229;-59
2024/01/04 08:21:02;;;;;;;0.87;0.83;;;;;;;-141.84;84.87;35402.63;5053512;28;20687;-56
2024/01/04 08:23:32;;;;;;;1.47;1.00;;;;;;;-141.84;82.26;25185.00;5053919;28;20194;-55
2024/01/04 08:26:05;;;;;;;1.23;0.80;;;;;;;-141.84;80.48;21580.34;5052760;28;20229;-56
2024/01/04 08:28:33;;;;;;;0.70;0.70;;;;;;;-141.84;78.95;20082.13;5053142;28;20253;-56
2024/01/04 08:31:02;;;;;;;1.20;0.70;;;;;;;-141.84;78.81;19834.16;5053019;28;20223;-57
2024/01/04 08:33:32;;;;;;;1.00;0.70;;;;;;;-141.84;79.50;20254.88;5046198;28;20225;-55
2024/01/04 08:36:02;;;;;;;0.70;0.70;;;;;;;-141.84;77.95;19567.94;5053023;28;20232;-55
2024/01/04 08:38:32;;;;;;;0.60;0.60;;;;;;;-141.84;77.23;19423.66;5053597;28;20190;-56
2024/01/04 08:41:01;;;;;;;0.70;0.70;;;;;;;-141.84;75.56;19066.00;5052931;28;20225;-56
2024/01/04 08:43:30;;;;;;;0.80;0.50;;;;;;;-141.84;73.71;18854.69;5053174;28;20249;-55
2024/01/04 08:45:58;;;;;;;1.30;0.60;;;;;;;-141.84;74.24;18911.56;5052913;28;20276;-53
2024/01/04 08:48:27;;;;;;;2.97;0.80;;;;;;;-141.84;74.17;18893.28;5052833;28;20265;-56
2024/01/04 08:50:56;;;;;;;0.50;0.50;;;;;;;-141.84;73.95;18858.75;5047181;28;20198;-55
2024/01/04 08:53:24;;;;;;;0.67;0.67;;;;;;;-141.84;73.92;18917.66;5052533;28;20716;-57
2024/01/04 08:55:54;;;;;;;1.90;0.50;;;;;;;-141.84;73.98;18901.41;5052415;28;20258;-57
2024/01/04 08:58:23;;;;;;;0.70;0.60;;;;;;;-141.84;74.83;18946.13;5052644;28;20221;-57
2024/01/04 09:00:51;;;;;;;0.60;0.50;;;;;;;-141.84;74.75;18901.41;5052379;28;20229;-56
2024/01/04 09:03:21;;;;;;;0.53;0.50;;;;;;;-141.84;73.99;18897.34;5052775;28;20249;-55
2024/01/04 09:05:50;;;;;;;0.60;0.60;;;;;;;-141.84;72.67;18805.91;5052799;28;20208;-58
2024/01/04 09:08:19;;;;;;;0.50;0.50;;;;;;;-141.84;71.86;18763.25;5052368;28;20390;-56
2024/01/04 09:10:47;;;;;;;1.00;0.50;;;;;;;-141.84;72.71;18814.03;5052217;28;20252;-57
2024/01/04 09:13:17;;;;;;;0.90;0.50;;;;;;;-141.84;72.45;18791.69;5052078;28;20228;-56
2024/01/04 09:15:46;;;;;;;0.97;0.60;;;;;;;-141.84;72.43;18816.06;5052346;28;20279;-56
2024/01/04 09:18:14;;;;;;;0.80;0.50;;;;;;;-141.84;72.30;18789.66;5051411;28;20313;-54
2024/01/04 09:20:43;;;;;;;1.70;0.77;;;;;;;-141.84;71.76;18757.16;5052432;28;20212;-57
2024/01/04 09:23:12;;;;;;;0.70;0.60;;;;;;;-141.84;71.46;18765.28;5052252;28;20613;-55
2024/01/04 09:25:40;;;;;;;0.57;0.50;;;;;;;-141.84;70.55;18744.97;5051887;28;20308;-56
2024/01/04 09:28:09;;;;;;;0.73;0.60;;;;;;;-141.84;70.58;18749.03;5052013;28;20299;-56
2024/01/04 09:30:38;;;;;;;0.70;0.50;;;;;;;-141.84;70.51;18690.09;5052056;28;20241;-54
2024/01/04 09:33:07;;;;;;;0.60;0.60;;;;;;;-141.84;69.49;18704.31;5051772;28;20271;-53
2024/01/04 09:35:36;;;;;;;1.73;0.57;;;;;;;-141.84;70.46;18753.09;5043995;28;20312;-54
2024/01/04 09:38:05;;;;;;;1.57;0.70;;;;;;;-141.84;71.42;18787.63;5052016;28;20248;-56
2024/01/04 09:40:34;;;;;;;1.30;0.60;;;;;;;-141.84;71.39;18740.91;5051722;28;20225;-55
2024/01/04 09:43:03;;;;;;;0.63;0.63;;;;;;;-141.84;71.96;18775.44;5052152;28;20249;-52
2024/01/04 09:45:33;;;;;;;0.73;0.60;;;;;;;-141.84;70.71;18749.03;5051721;28;20679;-54
2024/01/04 09:48:08;;;;;;;1.17;0.70;;;;;;;-141.84;72.10;18785.59;5051318;28;20217;-58
2024/01/04 09:50:55;;;;;;;0.70;0.60;;;;;;;-141.84;71.55;18753.09;5051669;28;20543;-55
2024/01/04 09:53:24;;;;;;;1.70;0.60;;;;;;;-141.84;72.51;18807.94;5050949;28;20766;-54
2024/01/04 09:55:53;;;;;;;0.90;0.60;;;;;;;-141.84;72.87;18824.22;5051136;28;20305;-53
2024/01/04 09:58:25;;;;;;;0.50;0.50;;;;;;;-141.84;74.33;18933.94;5051522;28;20232;-55
2024/01/04 10:00:54;;;;;;;1.13;0.73;;;;;;;-141.84;74.69;18980.66;5051515;28;20300;-56
2024/01/04 10:03:25;;;;;;;0.67;0.50;;;;;;;-141.84;74.16;18923.78;5051208;28;20231;-57
2024/01/04 10:05:57;;;;;;;0.77;0.70;;;;;;;-141.84;75.20;18986.75;5051511;28;20280;-57
2024/01/04 10:08:34;;;;;;;1.60;0.70;;;;;;;-141.84;76.38;19139.16;5050974;28;20229;-55
2024/01/04 10:11:13;;;;;;;0.60;0.60;;;;;;;-141.84;78.68;19645.16;5050757;28;20221;-55
2024/01/04 10:13:43;;;;;;;0.80;0.70;;;;;;;-141.84;75.76;19114.78;5051076;28;20290;-56
2024/01/04 10:16:12;;;;;;;1.50;0.50;;;;;;;-141.84;74.73;19021.31;5050890;28;20217;-57
2024/01/04 10:18:44;;;;;;;0.50;0.50;;;;;;;-141.84;75.77;19086.31;5050010;28;20300;-55
2024/01/04 10:21:13;;;;;;;0.70;0.60;;;;;;;-141.84;75.40;19076.16;5051268;28;20185;-55
2024/01/04 10:23:42;;;;;;;0.90;0.60;;;;;;;-141.84;75.77;19116.81;5051213;28;20727;-56
2024/01/04 10:26:13;;;;;;;1.03;0.83;;;;;;;-141.84;75.96;19145.25;5050751;28;20271;-57
2024/01/04 10:28:42;;;;;;;0.70;0.70;;;;;;;-141.84;75.17;19009.09;5050783;28;20702;-54
2024/01/04 10:31:11;;;;;;;1.13;0.63;;;;;;;-141.84;75.06;19039.59;5050300;28;20312;-55
2024/01/04 10:33:42;;;;;;;1.10;0.60;;;;;;;-141.84;75.43;19086.31;5049643;28;20221;-56
2024/01/04 10:36:13;;;;;;;1.27;1.00;;;;;;;-141.84;75.29;19053.81;5050076;28;20190;-55
2024/01/04 10:38:42;;;;;;;1.20;1.10;;;;;;;-141.84;75.59;19110.72;5051783;28;20261;-55
2024/01/04 10:41:10;;;;;;;1.07;0.67;;;;;;;-141.84;75.46;19078.19;5050548;28;20294;-57
2024/01/04 10:43:42;;;;;;;0.80;0.70;;;;;;;-141.84;75.33;19086.31;5050570;28;20290;-57
2024/01/04 10:46:13;;;;;;;1.27;0.80;;;;;;;-141.84;75.58;19106.66;5049950;28;20312;-57
2024/01/04 10:48:42;;;;;;;0.80;0.70;;;;;;;-141.84;75.46;19061.94;5045868;28;20298;-55
2024/01/04 10:51:14;;;;;;;0.60;0.60;;;;;;;-141.84;76.12;19137.13;5041416;28;20194;-57
2024/01/04 10:53:44;;;;;;;0.70;0.60;;;;;;;-141.84;74.98;19013.16;5043015;28;20186;-57
2024/01/04 10:56:14;;;;;;;1.87;1.00;;;;;;;-141.84;75.29;19017.25;5043171;28;20225;-54
2024/01/04 10:58:43;;;;;;;1.83;0.80;;;;;;;-141.84;75.93;19139.16;5042226;28;20241;-53
2024/01/04 11:01:12;;;;;;;2.43;1.03;;;;;;;-141.84;77.30;19338.28;5041410;28;20237;-53
2024/01/04 11:03:42;;;;;;;0.77;0.77;;;;;;;-141.84;77.67;19423.66;5046166;28;20778;-55
2024/01/04 11:06:12;;;;;;;0.80;0.80;;;;;;;-141.84;78.32;19618.75;5043878;28;20203;-55
2024/01/04 11:08:42;;;;;;;1.17;1.07;;;;;;;-141.84;77.85;19533.38;5043137;28;20604;-59
2024/01/04 11:11:12;;;;;;;1.20;0.90;;;;;;;-141.84;77.20;19326.09;5043898;28;20252;-55
2024/01/04 11:13:41;;;;;;;1.33;0.80;;;;;;;-141.84;77.03;19261.06;5043907;28;20696;-54
2024/01/04 11:16:19;;;;;;;2.10;0.70;;;;;;;-141.84;76.92;19226.53;5046541;28;20221;-60
2024/01/04 11:19:00;;;;;;;0.90;0.70;;;;;;;-141.84;76.60;19143.22;5043265;28;20644;-56
2024/01/04 11:21:48;;;;;;;1.10;0.80;;;;;;;-141.84;75.61;19076.16;5049995;28;20225;-56
2024/01/04 11:24:31;;;;;;;0.70;0.70;;;;;;;-141.84;76.04;19047.72;5050152;28;20217;-57
2024/01/04 11:27:03;;;;;;;0.60;0.60;;;;;;;-141.84;75.95;19102.56;5050648;28;20185;-54